createdAt,value
2023-05-19T00:00:21.419Z,100381.09
2023-05-19T00:02:49.891Z,100377.19
2023-05-19T00:05:18.940Z,100383.41
2023-05-19T00:07:48.179Z,100375.56
2023-05-19T00:10:19.370Z,100382.25
2023-05-19T00:12:47.732Z,100389.94
2023-05-19T00:15:16.566Z,100378.97
2023-05-19T00:17:44.358Z,100372.69
2023-05-19T00:20:13.412Z,100375.50
2023-05-19T00:22:44.098Z,100371.19
2023-05-19T00:25:11.920Z,100381.66
2023-05-19T00:27:41.194Z,100373.69
2023-05-19T00:30:10.389Z,100383.78
2023-05-19T00:32:38.356Z,100382.28
2023-05-19T00:35:06.909Z,100375.50
2023-05-19T00:37:34.672Z,100379.47
2023-05-19T00:40:02.453Z,100375.59
2023-05-19T00:42:30.443Z,100368.44
2023-05-19T00:44:59.573Z,100373.16
2023-05-19T00:47:27.907Z,100372.06
2023-05-19T00:49:55.656Z,100372.06
2023-05-19T00:52:23.474Z,100371.38
2023-05-19T00:54:52.687Z,100365.75
2023-05-19T00:57:21.806Z,100367.38
2023-05-19T00:59:49.781Z,100361.84
2023-05-19T01:02:19.268Z,100362.06
2023-05-19T01:04:47.339Z,100363.03
2023-05-19T01:07:15.360Z,100355.13
2023-05-19T01:09:43.607Z,100352.72
2023-05-19T01:12:11.525Z,100344.56
2023-05-19T01:14:39.449Z,100345.13
2023-05-19T01:17:14.506Z,100342.28
2023-05-19T01:19:56.317Z,100349.09
2023-05-19T01:22:47.586Z,100338.47
2023-05-19T01:25:43.488Z,100348.16
2023-05-19T01:28:54.259Z,100344.53
2023-05-19T01:31:25.562Z,100345.97
2023-05-19T01:33:54.928Z,100344.19
2023-05-19T01:36:24.296Z,100353.59
2023-05-19T01:38:54.657Z,100356.25
2023-05-19T01:41:23.522Z,100348.84
2023-05-19T01:43:51.922Z,100343.59
2023-05-19T01:46:20.291Z,100362.91
2023-05-19T01:48:49.805Z,100356.72
2023-05-19T01:51:17.681Z,100359.00
2023-05-19T01:53:45.525Z,100354.34
2023-05-19T01:56:22.644Z,100354.84
2023-05-19T01:58:56.951Z,100364.97
2023-05-19T02:01:35.161Z,100359.91
2023-05-19T02:04:19.168Z,100365.06
2023-05-19T02:06:54.896Z,100366.81
2023-05-19T02:09:26.769Z,100362.94
2023-05-19T02:11:57.985Z,100372.03
2023-05-19T02:14:30.923Z,100364.91
2023-05-19T02:16:59.340Z,100370.50
2023-05-19T02:19:33.009Z,100373.22
2023-05-19T02:22:00.790Z,100378.28
2023-05-19T02:24:28.490Z,100373.16
2023-05-19T02:26:56.255Z,100369.66
2023-05-19T02:29:24.017Z,100372.06
2023-05-19T02:31:51.795Z,100371.47
2023-05-19T02:34:19.562Z,100374.19
2023-05-19T02:36:49.763Z,100366.88
2023-05-19T02:39:17.587Z,100366.72
2023-05-19T02:41:45.339Z,100368.16
2023-05-19T02:44:13.061Z,100354.47
2023-05-19T02:46:41.089Z,100354.69
2023-05-19T02:49:09.056Z,100365.78
2023-05-19T02:51:36.820Z,100359.34
2023-05-19T02:54:06.011Z,100358.47
2023-05-19T02:56:33.779Z,100359.47
2023-05-19T02:59:01.709Z,100358.88
2023-05-19T03:01:29.672Z,100353.25
2023-05-19T03:03:57.503Z,100352.84
2023-05-19T03:06:25.392Z,100352.59
2023-05-19T03:08:53.179Z,100352.41
2023-05-19T03:11:23.299Z,100357.34
2023-05-19T03:13:51.173Z,100353.38
2023-05-19T03:16:19.120Z,100361.50
2023-05-19T03:18:47.105Z,100360.84
2023-05-19T03:21:15.155Z,100358.91
2023-05-19T03:23:42.851Z,100350.97
2023-05-19T03:26:10.801Z,100356.59
2023-05-19T03:28:39.953Z,100348.16
2023-05-19T03:31:07.655Z,100354.44
2023-05-19T03:33:35.353Z,100358.31
2023-05-19T03:36:04.000Z,100363.84
2023-05-19T03:38:31.683Z,100360.41
2023-05-19T03:40:59.371Z,100363.72
2023-05-19T03:43:27.223Z,100364.69
2023-05-19T03:45:56.390Z,100369.56
2023-05-19T03:48:24.350Z,100368.28
2023-05-19T03:50:52.189Z,100367.16
2023-05-19T03:53:20.088Z,100368.88
2023-05-19T03:55:48.580Z,100372.75
2023-05-19T03:58:16.842Z,100371.03
2023-05-19T04:00:44.717Z,100372.28
2023-05-19T04:03:13.937Z,100370.75
2023-05-19T04:05:41.983Z,100365.91
2023-05-19T04:08:09.793Z,100364.66
2023-05-19T04:10:37.495Z,100369.34
2023-05-19T04:13:05.419Z,100377.47
2023-05-19T04:15:34.070Z,100380.13
2023-05-19T04:18:01.765Z,100386.94
2023-05-19T04:20:31.016Z,100380.47
2023-05-19T04:22:59.172Z,100383.25
2023-05-19T04:25:28.251Z,100384.41
2023-05-19T04:27:57.707Z,100378.50
2023-05-19T04:30:26.005Z,100375.13
2023-05-19T04:32:53.807Z,100384.50
2023-05-19T04:35:22.529Z,100381.44
2023-05-19T04:37:54.361Z,100390.25
2023-05-19T04:40:23.729Z,100386.28
2023-05-19T04:42:52.331Z,100391.44
2023-05-19T04:45:20.227Z,100394.56
2023-05-19T04:47:48.144Z,100380.38
2023-05-19T04:50:16.836Z,100381.72
2023-05-19T04:52:45.658Z,100385.81
2023-05-19T04:55:15.284Z,100386.34
2023-05-19T04:57:43.139Z,100392.59
2023-05-19T05:00:13.918Z,100397.50
2023-05-19T05:02:42.909Z,100392.00
2023-05-19T05:05:11.167Z,100390.16
2023-05-19T05:07:38.920Z,100391.16
2023-05-19T05:10:08.285Z,100392.13
2023-05-19T05:12:37.995Z,100385.47
2023-05-19T05:15:07.925Z,100379.06
2023-05-19T05:17:37.735Z,100378.88
2023-05-19T05:20:06.968Z,100384.41
2023-05-19T05:22:38.655Z,100381.16
2023-05-19T05:25:07.777Z,100385.59
2023-05-19T05:27:36.932Z,100381.22
2023-05-19T05:30:05.384Z,100379.94
2023-05-19T05:32:33.407Z,100378.47
2023-05-19T05:35:01.371Z,100374.53
2023-05-19T05:37:29.260Z,100376.91
2023-05-19T05:39:56.966Z,100373.13
2023-05-19T05:42:24.721Z,100378.53
2023-05-19T05:44:53.980Z,100372.72
2023-05-19T05:47:22.206Z,100378.88
2023-05-19T05:49:52.083Z,100375.59
2023-05-19T05:52:23.061Z,100376.47
2023-05-19T05:54:51.348Z,100377.75
2023-05-19T05:57:19.597Z,100375.22
2023-05-19T05:59:47.712Z,100368.78
2023-05-19T06:02:16.981Z,100373.94
2023-05-19T06:04:45.113Z,100368.13
2023-05-19T06:07:13.117Z,100373.84
2023-05-19T06:09:41.553Z,100368.28
2023-05-19T06:12:09.690Z,100361.03
2023-05-19T06:14:37.398Z,100370.81
2023-05-19T06:17:05.576Z,100370.09
2023-05-19T06:19:34.784Z,100372.47
2023-05-19T06:22:02.478Z,100378.19
2023-05-19T06:24:30.492Z,100372.16
2023-05-19T06:26:58.512Z,100368.78
2023-05-19T06:29:26.197Z,100378.72
2023-05-19T06:31:54.192Z,100372.22
2023-05-19T06:34:21.920Z,100371.81
2023-05-19T06:36:51.184Z,100366.78
2023-05-19T06:39:19.041Z,100379.84
2023-05-19T06:41:46.720Z,100370.72
2023-05-19T06:44:14.404Z,100371.78
2023-05-19T06:46:42.158Z,100366.56
2023-05-19T06:49:09.862Z,100360.63
2023-05-19T06:51:37.860Z,100359.72
2023-05-19T06:54:07.017Z,100363.00
2023-05-19T06:56:34.804Z,100356.47
2023-05-19T06:59:02.556Z,100355.13
2023-05-19T07:01:30.456Z,100353.84
2023-05-19T07:03:58.202Z,100345.16
2023-05-19T07:06:26.093Z,100343.19
2023-05-19T07:08:53.863Z,100349.06
2023-05-19T07:11:23.805Z,100348.81
2023-05-19T07:13:51.581Z,100343.00
2023-05-19T07:16:19.448Z,100348.13
2023-05-19T07:18:47.283Z,100348.56
2023-05-19T07:21:15.069Z,100339.44
2023-05-19T07:23:42.764Z,100348.00
2023-05-19T07:26:10.475Z,100340.69
2023-05-19T07:28:41.473Z,100335.53
2023-05-19T07:31:10.853Z,100338.41
2023-05-19T07:33:38.624Z,100330.91
2023-05-19T07:36:06.664Z,100339.91
2023-05-19T07:38:34.795Z,100332.56
2023-05-19T07:41:03.430Z,100329.59
2023-05-19T07:43:31.547Z,100327.44
2023-05-19T07:46:01.040Z,100335.69
2023-05-19T07:48:29.867Z,100331.16
2023-05-19T07:50:57.563Z,100326.97
2023-05-19T07:53:25.965Z,100330.84
2023-05-19T07:55:53.946Z,100326.28
2023-05-19T07:58:24.717Z,100324.66
2023-05-19T08:00:53.520Z,100325.72
2023-05-19T08:03:23.580Z,100324.06
2023-05-19T08:05:51.612Z,100324.56
2023-05-19T08:08:19.591Z,100312.69
2023-05-19T08:10:47.466Z,100315.16
2023-05-19T08:13:15.290Z,100319.41
2023-05-19T08:15:43.116Z,100323.69
2023-05-19T08:18:10.911Z,100324.56
2023-05-19T08:20:40.091Z,100320.13
2023-05-19T08:23:07.839Z,100312.56
2023-05-19T08:25:35.688Z,100313.13
2023-05-19T08:28:03.506Z,100302.59
2023-05-19T08:30:31.496Z,100305.69
2023-05-19T08:32:59.788Z,100304.66
2023-05-19T08:35:27.564Z,100309.81
2023-05-19T08:37:56.725Z,100303.22
2023-05-19T08:40:24.947Z,100297.03
2023-05-19T08:42:52.803Z,100288.56
2023-05-19T08:45:21.116Z,100293.75
2023-05-19T08:47:50.358Z,100294.34
2023-05-19T08:50:23.291Z,100285.16
2023-05-19T08:52:54.184Z,100287.50
2023-05-19T08:55:35.668Z,100289.69
2023-05-19T08:58:05.727Z,100283.88
2023-05-19T09:00:34.450Z,100284.72
2023-05-19T09:03:17.457Z,100280.94
2023-05-19T09:05:51.334Z,100278.25
2023-05-19T09:08:19.448Z,100265.66
2023-05-19T09:10:49.527Z,100267.06
2023-05-19T09:13:18.448Z,100267.47
2023-05-19T09:15:47.179Z,100262.47
2023-05-19T09:18:15.509Z,100257.53
2023-05-19T09:20:44.877Z,100246.78
2023-05-19T09:23:16.831Z,100254.94
2023-05-19T09:25:50.487Z,100249.78
2023-05-19T09:28:25.108Z,100254.38
2023-05-19T09:31:01.153Z,100249.84
2023-05-19T09:33:29.496Z,100244.63
2023-05-19T09:35:57.757Z,100247.69
2023-05-19T09:38:26.391Z,100244.06
2023-05-19T09:40:58.821Z,100246.28
2023-05-19T09:43:29.698Z,100238.88
2023-05-19T09:46:01.227Z,100238.94
2023-05-19T09:48:29.187Z,100237.72
2023-05-19T09:50:57.832Z,100229.66
2023-05-19T09:53:26.552Z,100234.00
2023-05-19T09:55:58.973Z,100227.22
2023-05-19T09:58:27.954Z,100231.00
2023-05-19T10:00:56.869Z,100223.38
2023-05-19T10:03:25.032Z,100218.28
2023-05-19T10:05:54.862Z,100220.31
2023-05-19T10:08:26.696Z,100218.72
2023-05-19T10:10:55.036Z,100221.44
2023-05-19T10:13:25.272Z,100222.88
2023-05-19T10:15:58.928Z,100212.97
2023-05-19T10:18:29.484Z,100217.31
2023-05-19T10:20:58.692Z,100204.38
2023-05-19T10:23:27.102Z,100200.06
2023-05-19T10:25:58.167Z,100195.47
2023-05-19T10:28:36.139Z,100199.00
2023-05-19T10:31:08.584Z,100201.06
2023-05-19T10:33:48.474Z,100192.66
2023-05-19T10:36:35.380Z,100193.44
2023-05-19T10:39:07.405Z,100194.81
2023-05-19T10:41:45.151Z,100191.06
2023-05-19T10:44:29.310Z,100195.44
2023-05-19T10:46:57.270Z,100194.44
2023-05-19T10:49:25.517Z,100195.31
2023-05-19T10:51:56.367Z,100196.41
2023-05-19T10:54:43.723Z,100202.81
2023-05-19T10:57:16.300Z,100204.28
2023-05-19T10:59:45.879Z,100184.03
2023-05-19T11:02:39.324Z,100172.03
2023-05-19T11:05:11.029Z,100172.09
2023-05-19T11:07:42.401Z,100167.66
2023-05-19T11:10:11.016Z,100178.44
2023-05-19T11:12:44.096Z,100178.47
2023-05-19T11:15:15.379Z,100185.16
2023-05-19T11:17:46.331Z,100178.88
2023-05-19T11:20:23.551Z,100177.91
2023-05-19T11:23:08.190Z,100172.38
2023-05-19T11:25:46.828Z,100161.38
2023-05-19T11:28:19.131Z,100164.28
2023-05-19T11:30:51.760Z,100168.47
2023-05-19T11:33:20.717Z,100171.25
2023-05-19T11:35:49.892Z,100166.06
2023-05-19T11:38:19.563Z,100172.78
2023-05-19T11:40:48.823Z,100167.75
2023-05-19T11:43:16.695Z,100171.28
2023-05-19T11:45:44.927Z,100169.66
2023-05-19T11:48:16.016Z,100153.75
2023-05-19T11:50:45.051Z,100158.69
2023-05-19T11:53:13.706Z,100164.44
2023-05-19T11:55:44.539Z,100157.31
2023-05-19T11:58:12.427Z,100154.22
2023-05-19T12:00:41.564Z,100160.28
2023-05-19T12:03:10.358Z,100143.44
2023-05-19T12:05:43.677Z,100148.88
2023-05-19T12:08:12.309Z,100144.78
2023-05-19T12:10:41.019Z,100150.13
2023-05-19T12:13:10.363Z,100138.31
2023-05-19T12:15:39.500Z,100144.66
2023-05-19T12:18:08.465Z,100135.19
2023-05-19T12:20:37.144Z,100140.94
2023-05-19T12:23:07.530Z,100144.25
2023-05-19T12:25:35.642Z,100139.09
2023-05-19T12:28:04.557Z,100152.63
2023-05-19T12:30:34.304Z,100144.19
2023-05-19T12:33:02.948Z,100135.59
2023-05-19T12:35:33.051Z,100127.94
2023-05-19T12:38:04.739Z,100140.66
2023-05-19T12:40:35.549Z,100119.63
2023-05-19T12:43:04.161Z,100124.16
2023-05-19T12:45:35.670Z,100133.31
2023-05-19T12:48:05.261Z,100119.66
2023-05-19T12:50:34.815Z,100122.41
2023-05-19T12:53:03.059Z,100118.22
2023-05-19T12:55:31.401Z,100116.81
2023-05-19T12:58:00.511Z,100126.47
2023-05-19T13:00:31.024Z,100117.34
2023-05-19T13:03:01.744Z,100128.59
2023-05-19T13:05:31.677Z,100113.09
2023-05-19T13:08:00.439Z,100120.25
2023-05-19T13:10:28.950Z,100120.59
2023-05-19T13:12:58.383Z,100113.44
2023-05-19T13:15:29.508Z,100103.69
2023-05-19T13:17:57.404Z,100113.31
2023-05-19T13:20:27.598Z,100119.72
2023-05-19T13:22:57.027Z,100113.97
2023-05-19T13:25:24.845Z,100104.03
2023-05-19T13:27:52.686Z,100104.16
2023-05-19T13:30:21.000Z,100109.19
2023-05-19T13:32:50.694Z,100099.84
2023-05-19T13:35:18.666Z,100107.19
2023-05-19T13:37:46.422Z,100112.25
2023-05-19T13:40:15.708Z,100103.66
2023-05-19T13:42:43.533Z,100111.34
2023-05-19T13:45:12.179Z,100104.41
2023-05-19T13:47:39.957Z,100107.88
2023-05-19T13:50:09.673Z,100112.31
2023-05-19T13:52:37.629Z,100105.31
2023-05-19T13:55:07.162Z,100106.16
2023-05-19T13:57:35.317Z,100102.50
2023-05-19T14:00:04.585Z,100098.03
2023-05-19T14:02:33.036Z,100102.94
2023-05-19T14:05:01.014Z,100103.84
2023-05-19T14:07:30.466Z,100108.50
2023-05-19T14:09:58.302Z,100094.69
2023-05-19T14:12:35.376Z,100099.44
2023-05-19T14:15:09.225Z,100099.06
2023-05-19T14:17:38.312Z,100093.81
2023-05-19T14:20:07.393Z,100103.66
2023-05-19T14:22:36.695Z,100089.88
2023-05-19T14:25:04.758Z,100092.75
2023-05-19T14:27:32.524Z,100101.47
2023-05-19T14:30:00.458Z,100089.94
2023-05-19T14:32:30.462Z,100095.34
2023-05-19T14:34:58.502Z,100092.25
2023-05-19T14:37:28.880Z,100097.69
2023-05-19T14:39:58.721Z,100111.50
2023-05-19T14:42:26.584Z,100100.44
2023-05-19T14:44:54.338Z,100101.25
2023-05-19T14:47:22.545Z,100094.13
2023-05-19T14:49:50.488Z,100089.31
2023-05-19T14:52:18.609Z,100096.59
2023-05-19T14:54:46.454Z,100091.91
2023-05-19T14:57:15.705Z,100098.63
2023-05-19T14:59:43.461Z,100100.44
2023-05-19T15:02:12.009Z,100097.16
2023-05-19T15:04:39.846Z,100100.78
2023-05-19T15:07:10.359Z,100105.16
2023-05-19T15:09:38.884Z,100089.16
2023-05-19T15:12:07.078Z,100092.84
2023-05-19T15:14:36.198Z,100091.09
2023-05-19T15:17:04.031Z,100089.59
2023-05-19T15:19:31.865Z,100093.34
2023-05-19T15:21:59.659Z,100087.06
2023-05-19T15:24:27.964Z,100086.53
2023-05-19T15:26:56.405Z,100084.19
2023-05-19T15:29:24.317Z,100089.16
2023-05-19T15:31:53.782Z,100086.97
2023-05-19T15:34:22.124Z,100089.34
2023-05-19T15:36:50.012Z,100084.88
2023-05-19T15:39:17.987Z,100077.56
2023-05-19T15:41:45.836Z,100080.31
2023-05-19T15:44:13.651Z,100073.53
2023-05-19T15:46:41.637Z,100078.16
2023-05-19T15:49:12.845Z,100086.91
2023-05-19T15:51:41.030Z,100078.09
2023-05-19T15:54:08.912Z,100078.25
2023-05-19T15:56:36.811Z,100076.13
2023-05-19T15:59:04.531Z,100074.81
2023-05-19T16:01:32.434Z,100074.44
2023-05-19T16:04:02.336Z,100071.38
2023-05-19T16:06:31.743Z,100075.56
2023-05-19T16:08:59.940Z,100072.63
2023-05-19T16:11:27.879Z,100068.06
2023-05-19T16:13:57.592Z,100068.38
2023-05-19T16:16:25.539Z,100069.22
2023-05-19T16:18:53.393Z,100055.22
2023-05-19T16:21:21.783Z,100054.63
2023-05-19T16:23:50.855Z,100051.28
2023-05-19T16:26:18.696Z,100049.44
2023-05-19T16:28:46.458Z,100044.84
2023-05-19T16:31:14.468Z,100046.06
2023-05-19T16:33:42.409Z,100036.00
2023-05-19T16:36:10.134Z,100043.88
2023-05-19T16:38:38.248Z,100026.69
2023-05-19T16:41:12.621Z,100041.78
2023-05-19T16:43:40.688Z,100026.63
2023-05-19T16:46:09.888Z,100022.44
2023-05-19T16:48:37.742Z,100035.03
2023-05-19T16:51:05.600Z,100027.16
2023-05-19T16:53:33.517Z,100022.31
2023-05-19T16:56:01.408Z,100024.44
2023-05-19T16:58:31.102Z,100022.47
2023-05-19T17:00:58.982Z,100016.63
2023-05-19T17:03:27.013Z,100020.66
2023-05-19T17:05:55.400Z,100020.16
2023-05-19T17:08:23.281Z,100019.41
2023-05-19T17:10:51.138Z,100003.69
2023-05-19T17:13:18.997Z,100018.94
2023-05-19T17:15:52.418Z,100016.09
2023-05-19T17:18:20.269Z,100015.91
2023-05-19T17:20:48.135Z,100015.06
2023-05-19T17:23:16.014Z,100012.25
2023-05-19T17:25:43.811Z,100016.19
2023-05-19T17:28:11.650Z,100018.22
2023-05-19T17:30:40.649Z,100013.03
2023-05-19T17:33:09.786Z,100012.69
2023-05-19T17:35:37.738Z,100020.41
2023-05-19T17:38:05.592Z,100022.31
2023-05-19T17:40:34.260Z,100025.47
2023-05-19T17:43:02.396Z,100024.03
2023-05-19T17:45:31.168Z,100024.09
2023-05-19T17:47:58.988Z,100027.69
2023-05-19T17:50:28.605Z,100026.19
2023-05-19T17:52:56.956Z,100037.66
2023-05-19T17:55:29.985Z,100036.03
2023-05-19T17:57:59.027Z,100024.31
2023-05-19T18:00:27.623Z,100026.50
2023-05-19T18:02:56.930Z,100020.22
2023-05-19T18:05:26.754Z,100024.03
2023-05-19T18:07:59.265Z,100023.31
2023-05-19T18:10:28.673Z,100026.88
2023-05-19T18:12:56.714Z,100028.53
2023-05-19T18:15:25.879Z,100023.97
2023-05-19T18:17:53.786Z,100023.88
2023-05-19T18:20:21.940Z,100023.84
2023-05-19T18:22:50.421Z,100018.38
2023-05-19T18:25:20.939Z,100017.44
2023-05-19T18:27:49.047Z,100022.97
2023-05-19T18:30:17.111Z,100013.13
2023-05-19T18:32:45.043Z,100012.69
2023-05-19T18:35:12.953Z,100018.25
2023-05-19T18:37:40.930Z,100013.25
2023-05-19T18:40:09.747Z,100018.22
2023-05-19T18:42:39.028Z,100014.31
2023-05-19T18:45:07.928Z,100014.75
2023-05-19T18:47:35.970Z,100011.25
2023-05-19T18:50:04.500Z,100006.66
2023-05-19T18:52:32.481Z,100005.34
2023-05-19T18:55:01.173Z,100008.38
2023-05-19T18:57:29.046Z,100008.03
2023-05-19T18:59:58.217Z,100011.50
2023-05-19T19:02:26.140Z,100015.41
2023-05-19T19:04:54.512Z,100005.88
2023-05-19T19:07:22.264Z,100013.94
2023-05-19T19:09:50.459Z,100014.69
2023-05-19T19:12:19.617Z,100016.31
2023-05-19T19:14:48.222Z,100021.56
2023-05-19T19:17:18.019Z,100018.44
2023-05-19T19:19:46.371Z,100016.63
2023-05-19T19:22:14.289Z,100024.81
2023-05-19T19:24:43.093Z,100026.91
2023-05-19T19:27:11.128Z,100021.44
2023-05-19T19:29:39.194Z,100017.34
2023-05-19T19:32:08.817Z,100030.31
2023-05-19T19:34:38.558Z,100032.97
2023-05-19T19:37:06.361Z,100040.63
2023-05-19T19:39:34.406Z,100036.97
2023-05-19T19:42:02.484Z,100037.16
2023-05-19T19:44:30.454Z,100037.41
2023-05-19T19:46:58.191Z,100030.59
2023-05-19T19:49:26.099Z,100038.25
2023-05-19T19:51:55.612Z,100036.75
2023-05-19T19:54:23.396Z,100034.28
2023-05-19T19:56:51.451Z,100040.25
2023-05-19T19:59:19.333Z,100037.84
2023-05-19T20:01:47.180Z,100049.78
2023-05-19T20:04:15.768Z,100040.91
2023-05-19T20:06:43.798Z,100037.41
2023-05-19T20:09:13.101Z,100040.09
2023-05-19T20:11:40.951Z,100041.53
2023-05-19T20:14:08.959Z,100046.69
2023-05-19T20:16:37.484Z,100037.22
2023-05-19T20:19:06.772Z,100032.69
2023-05-19T20:21:36.367Z,100037.81
2023-05-19T20:24:04.544Z,100038.66
2023-05-19T20:26:33.813Z,100037.84
2023-05-19T20:29:01.593Z,100037.44
2023-05-19T20:31:29.447Z,100035.56
2023-05-19T20:33:58.158Z,100038.66
2023-05-19T20:36:27.460Z,100033.91
2023-05-19T20:38:55.310Z,100036.59
2023-05-19T20:41:23.714Z,100044.19
2023-05-19T20:43:54.954Z,100034.34
2023-05-19T20:46:22.971Z,100029.59
2023-05-19T20:48:50.853Z,100041.53
2023-05-19T20:51:18.668Z,100036.59
2023-05-19T20:53:46.667Z,100033.28
2023-05-19T20:56:14.737Z,100035.28
2023-05-19T20:58:42.500Z,100040.69
2023-05-19T21:01:11.836Z,100037.41
2023-05-19T21:03:39.758Z,100032.84
2023-05-19T21:06:07.614Z,100039.81
2023-05-19T21:08:35.517Z,100041.16
2023-05-19T21:11:03.561Z,100041.66
2023-05-19T21:13:31.462Z,100041.00
2023-05-19T21:15:59.571Z,100051.06
2023-05-19T21:18:28.852Z,100044.91
2023-05-19T21:20:56.737Z,100051.34
2023-05-19T21:23:24.530Z,100044.09
2023-05-19T21:25:52.710Z,100047.84
2023-05-19T21:28:20.610Z,100043.47
2023-05-19T21:30:49.227Z,100043.03
2023-05-19T21:33:17.283Z,100030.69
2023-05-19T21:35:47.456Z,100037.72
2023-05-19T21:38:23.476Z,100047.66
2023-05-19T21:40:53.296Z,100045.44
2023-05-19T21:43:22.045Z,100045.44
2023-05-19T21:45:49.943Z,100046.72
2023-05-19T21:48:18.084Z,100048.78
2023-05-19T21:50:47.358Z,100043.66
2023-05-19T21:53:15.230Z,100042.81
2023-05-19T21:55:43.086Z,100043.00
2023-05-19T21:58:11.126Z,100041.41
2023-05-19T22:00:38.940Z,100038.38
2023-05-19T22:03:06.842Z,100040.47
2023-05-19T22:05:35.331Z,100036.03
2023-05-19T22:08:04.755Z,100048.25
2023-05-19T22:10:33.099Z,100041.91
2023-05-19T22:13:01.286Z,100045.03
2023-05-19T22:15:29.140Z,100042.56
2023-05-19T22:17:57.172Z,100038.44
2023-05-19T22:20:25.271Z,100035.28
2023-05-19T22:22:53.495Z,100042.56
2023-05-19T22:25:22.643Z,100046.72
2023-05-19T22:27:50.486Z,100036.06
2023-05-19T22:30:18.309Z,100036.41
2023-05-19T22:32:46.327Z,100036.00
2023-05-19T22:35:14.083Z,100033.22
2023-05-19T22:37:41.902Z,100034.88
2023-05-19T22:40:10.225Z,100042.13
2023-05-19T22:42:39.615Z,100036.78
2023-05-19T22:45:08.318Z,100035.06
2023-05-19T22:47:36.449Z,100036.00
2023-05-19T22:50:04.576Z,100031.69
2023-05-19T22:52:32.302Z,100029.44
2023-05-19T22:55:00.173Z,100023.66
2023-05-19T22:57:27.995Z,100029.00
2023-05-19T22:59:57.073Z,100025.47
2023-05-19T23:02:24.873Z,100026.97
2023-05-19T23:04:52.887Z,100029.38
2023-05-19T23:07:20.699Z,100034.00
2023-05-19T23:09:48.500Z,100028.19
2023-05-19T23:12:17.251Z,100029.34
2023-05-19T23:14:45.043Z,100033.66
2023-05-19T23:17:14.454Z,100025.88
2023-05-19T23:19:42.308Z,100026.06
2023-05-19T23:22:11.167Z,100027.97
2023-05-19T23:24:39.478Z,100020.41
2023-05-19T23:27:07.927Z,100024.94
2023-05-19T23:29:35.831Z,100018.50
2023-05-19T23:32:03.613Z,100010.25
2023-05-19T23:34:33.082Z,100019.19
2023-05-19T23:37:00.881Z,100016.22
2023-05-19T23:39:28.568Z,100015.31
2023-05-19T23:41:56.349Z,100008.97
2023-05-19T23:44:24.139Z,100005.31
2023-05-19T23:46:52.030Z,100003.72
2023-05-19T23:49:20.457Z,100002.19
2023-05-19T23:51:49.583Z,100001.00
2023-05-19T23:54:17.399Z,100000.72
2023-05-19T23:56:45.225Z,100002.59
2023-05-19T23:59:13.054Z,100006.78
